sensor_id;sensor_type;location;lat;lon;timestamp;P1;durP1;ratioP1;P2;durP2;ratioP2
73675;SDS011;61975;48.660;10.164;2023-05-07T00:00:52;4.00;;;2.20;;
73675;SDS011;61975;48.660;10.164;2023-05-07T00:03:18;5.37;;;2.50;;
73675;SDS011;61975;48.660;10.164;2023-05-07T00:05:44;6.03;;;2.53;;
73675;SDS011;61975;48.660;10.164;2023-05-07T00:08:09;5.77;;;2.33;;
73675;SDS011;61975;48.660;10.164;2023-05-07T00:10:35;4.13;;;2.27;;
73675;SDS011;61975;48.660;10.164;2023-05-07T00:13:00;4.30;;;2.27;;
73675;SDS011;61975;48.660;10.164;2023-05-07T00:15:26;5.77;;;2.30;;
73675;SDS011;61975;48.660;10.164;2023-05-07T00:17:51;5.53;;;2.20;;
73675;SDS011;61975;48.660;10.164;2023-05-07T00:20:18;4.50;;;2.50;;
73675;SDS011;61975;48.660;10.164;2023-05-07T00:22:43;4.70;;;2.50;;
73675;SDS011;61975;48.660;10.164;2023-05-07T00:25:09;4.13;;;2.10;;
73675;SDS011;61975;48.660;10.164;2023-05-07T00:27:35;4.50;;;2.25;;
73675;SDS011;61975;48.660;10.164;2023-05-07T00:30:00;5.47;;;2.37;;
73675;SDS011;61975;48.660;10.164;2023-05-07T00:32:26;5.13;;;2.08;;
73675;SDS011;61975;48.660;10.164;2023-05-07T00:34:51;4.37;;;2.20;;
73675;SDS011;61975;48.660;10.164;2023-05-07T00:37:16;4.73;;;2.33;;
73675;SDS011;61975;48.660;10.164;2023-05-07T00:39:42;4.50;;;2.40;;
73675;SDS011;61975;48.660;10.164;2023-05-07T00:42:07;4.50;;;2.77;;
73675;SDS011;61975;48.660;10.164;2023-05-07T00:44:33;5.22;;;2.45;;
73675;SDS011;61975;48.660;10.164;2023-05-07T00:46:58;4.53;;;2.40;;
73675;SDS011;61975;48.660;10.164;2023-05-07T00:49:37;4.43;;;2.45;;
73675;SDS011;61975;48.660;10.164;2023-05-07T00:52:07;6.40;;;2.40;;
73675;SDS011;61975;48.660;10.164;2023-05-07T00:54:36;4.50;;;2.35;;
73675;SDS011;61975;48.660;10.164;2023-05-07T00:57:02;4.25;;;2.30;;
73675;SDS011;61975;48.660;10.164;2023-05-07T00:59:27;4.38;;;2.45;;
73675;SDS011;61975;48.660;10.164;2023-05-07T01:01:53;5.83;;;2.50;;
73675;SDS011;61975;48.660;10.164;2023-05-07T01:04:18;5.27;;;2.60;;
73675;SDS011;61975;48.660;10.164;2023-05-07T01:06:44;6.33;;;2.57;;
73675;SDS011;61975;48.660;10.164;2023-05-07T01:09:10;4.47;;;2.47;;
73675;SDS011;61975;48.660;10.164;2023-05-07T01:11:37;6.93;;;2.40;;
73675;SDS011;61975;48.660;10.164;2023-05-07T01:14:04;4.80;;;2.03;;
73675;SDS011;61975;48.660;10.164;2023-05-07T01:16:30;4.82;;;2.60;;
73675;SDS011;61975;48.660;10.164;2023-05-07T01:18:56;4.43;;;2.20;;
73675;SDS011;61975;48.660;10.164;2023-05-07T01:21:24;4.97;;;2.20;;
73675;SDS011;61975;48.660;10.164;2023-05-07T01:23:51;5.67;;;2.40;;
73675;SDS011;61975;48.660;10.164;2023-05-07T01:26:18;4.57;;;2.38;;
73675;SDS011;61975;48.660;10.164;2023-05-07T01:28:45;6.82;;;2.80;;
73675;SDS011;61975;48.660;10.164;2023-05-07T01:31:10;5.30;;;2.70;;
73675;SDS011;61975;48.660;10.164;2023-05-07T01:33:38;5.50;;;2.40;;
73675;SDS011;61975;48.660;10.164;2023-05-07T01:36:06;4.43;;;2.33;;
73675;SDS011;61975;48.660;10.164;2023-05-07T01:38:34;4.03;;;2.10;;
73675;SDS011;61975;48.660;10.164;2023-05-07T01:41:02;4.95;;;2.20;;
73675;SDS011;61975;48.660;10.164;2023-05-07T01:43:29;5.93;;;2.50;;
73675;SDS011;61975;48.660;10.164;2023-05-07T01:45:55;4.50;;;2.60;;
73675;SDS011;61975;48.660;10.164;2023-05-07T01:48:24;6.07;;;2.42;;
73675;SDS011;61975;48.660;10.164;2023-05-07T01:50:50;4.35;;;2.20;;
73675;SDS011;61975;48.660;10.164;2023-05-07T01:53:16;5.40;;;2.20;;
73675;SDS011;61975;48.660;10.164;2023-05-07T01:55:41;6.17;;;2.60;;
73675;SDS011;61975;48.660;10.164;2023-05-07T01:58:07;5.23;;;2.73;;
73675;SDS011;61975;48.660;10.164;2023-05-07T02:00:32;5.47;;;2.77;;
73675;SDS011;61975;48.660;10.164;2023-05-07T02:02:58;5.00;;;2.40;;
73675;SDS011;61975;48.660;10.164;2023-05-07T02:05:23;5.37;;;2.33;;
73675;SDS011;61975;48.660;10.164;2023-05-07T02:07:49;4.33;;;2.33;;
73675;SDS011;61975;48.660;10.164;2023-05-07T02:10:14;5.07;;;2.40;;
73675;SDS011;61975;48.660;10.164;2023-05-07T02:12:39;5.03;;;2.50;;
73675;SDS011;61975;48.660;10.164;2023-05-07T02:15:05;5.32;;;2.38;;
73675;SDS011;61975;48.660;10.164;2023-05-07T02:17:31;6.40;;;2.30;;
73675;SDS011;61975;48.660;10.164;2023-05-07T02:19:59;6.25;;;2.63;;
73675;SDS011;61975;48.660;10.164;2023-05-07T02:22:25;5.57;;;2.45;;
73675;SDS011;61975;48.660;10.164;2023-05-07T02:24:50;5.67;;;2.50;;
73675;SDS011;61975;48.660;10.164;2023-05-07T02:27:16;4.80;;;2.27;;
73675;SDS011;61975;48.660;10.164;2023-05-07T02:29:41;5.85;;;2.40;;
73675;SDS011;61975;48.660;10.164;2023-05-07T02:32:06;4.77;;;2.30;;
73675;SDS011;61975;48.660;10.164;2023-05-07T02:34:32;4.80;;;2.40;;
73675;SDS011;61975;48.660;10.164;2023-05-07T02:36:57;6.47;;;2.30;;
73675;SDS011;61975;48.660;10.164;2023-05-07T02:39:23;4.30;;;2.10;;
73675;SDS011;61975;48.660;10.164;2023-05-07T02:41:48;4.93;;;2.47;;
73675;SDS011;61975;48.660;10.164;2023-05-07T02:44:13;4.13;;;2.17;;
73675;SDS011;61975;48.660;10.164;2023-05-07T02:46:39;4.20;;;2.37;;
73675;SDS011;61975;48.660;10.164;2023-05-07T02:49:04;5.50;;;2.40;;
73675;SDS011;61975;48.660;10.164;2023-05-07T02:51:30;4.33;;;2.20;;
73675;SDS011;61975;48.660;10.164;2023-05-07T02:53:56;3.93;;;2.13;;
73675;SDS011;61975;48.660;10.164;2023-05-07T02:56:21;4.87;;;2.50;;
73675;SDS011;61975;48.660;10.164;2023-05-07T02:58:47;4.20;;;2.33;;
73675;SDS011;61975;48.660;10.164;2023-05-07T03:01:12;4.20;;;2.40;;
73675;SDS011;61975;48.660;10.164;2023-05-07T03:03:38;6.15;;;2.30;;
73675;SDS011;61975;48.660;10.164;2023-05-07T03:06:04;4.47;;;2.30;;
73675;SDS011;61975;48.660;10.164;2023-05-07T03:08:31;4.03;;;2.30;;
73675;SDS011;61975;48.660;10.164;2023-05-07T03:10:57;3.97;;;2.08;;
73675;SDS011;61975;48.660;10.164;2023-05-07T03:13:23;5.28;;;2.63;;
73675;SDS011;61975;48.660;10.164;2023-05-07T03:15:49;4.93;;;2.43;;
73675;SDS011;61975;48.660;10.164;2023-05-07T03:18:14;4.20;;;2.03;;
73675;SDS011;61975;48.660;10.164;2023-05-07T03:20:39;4.10;;;2.20;;
73675;SDS011;61975;48.660;10.164;2023-05-07T03:23:05;5.10;;;2.20;;
73675;SDS011;61975;48.660;10.164;2023-05-07T03:25:31;4.90;;;2.27;;
73675;SDS011;61975;48.660;10.164;2023-05-07T03:27:57;3.97;;;2.20;;
73675;SDS011;61975;48.660;10.164;2023-05-07T03:30:22;4.43;;;2.40;;
73675;SDS011;61975;48.660;10.164;2023-05-07T03:32:48;4.90;;;2.20;;
73675;SDS011;61975;48.660;10.164;2023-05-07T03:35:13;3.97;;;2.10;;
73675;SDS011;61975;48.660;10.164;2023-05-07T03:37:39;4.07;;;2.08;;
73675;SDS011;61975;48.660;10.164;2023-05-07T03:40:05;5.87;;;2.07;;
73675;SDS011;61975;48.660;10.164;2023-05-07T03:42:31;7.13;;;2.30;;
73675;SDS011;61975;48.660;10.164;2023-05-07T03:44:56;4.68;;;2.10;;
73675;SDS011;61975;48.660;10.164;2023-05-07T03:47:21;4.47;;;2.23;;
73675;SDS011;61975;48.660;10.164;2023-05-07T03:49:47;5.03;;;2.20;;
73675;SDS011;61975;48.660;10.164;2023-05-07T03:52:14;4.85;;;2.20;;
73675;SDS011;61975;48.660;10.164;2023-05-07T03:54:39;4.27;;;2.07;;
73675;SDS011;61975;48.660;10.164;2023-05-07T03:57:05;4.30;;;2.33;;
73675;SDS011;61975;48.660;10.164;2023-05-07T03:59:30;4.38;;;2.38;;
73675;SDS011;61975;48.660;10.164;2023-05-07T04:01:56;4.60;;;2.37;;
73675;SDS011;61975;48.660;10.164;2023-05-07T04:04:21;5.27;;;2.30;;
73675;SDS011;61975;48.660;10.164;2023-05-07T04:06:46;3.97;;;2.17;;
73675;SDS011;61975;48.660;10.164;2023-05-07T04:09:12;5.93;;;2.60;;
73675;SDS011;61975;48.660;10.164;2023-05-07T04:11:37;4.95;;;2.42;;
73675;SDS011;61975;48.660;10.164;2023-05-07T04:14:05;4.50;;;2.23;;
73675;SDS011;61975;48.660;10.164;2023-05-07T04:16:30;4.00;;;2.40;;
73675;SDS011;61975;48.660;10.164;2023-05-07T04:18:56;4.70;;;2.40;;
73675;SDS011;61975;48.660;10.164;2023-05-07T04:21:21;4.27;;;2.27;;
73675;SDS011;61975;48.660;10.164;2023-05-07T04:23:47;5.20;;;2.10;;
73675;SDS011;61975;48.660;10.164;2023-05-07T04:26:13;4.23;;;2.23;;
73675;SDS011;61975;48.660;10.164;2023-05-07T04:28:39;5.57;;;2.30;;
73675;SDS011;61975;48.660;10.164;2023-05-07T04:31:05;4.47;;;2.33;;
73675;SDS011;61975;48.660;10.164;2023-05-07T04:33:31;3.67;;;2.13;;
73675;SDS011;61975;48.660;10.164;2023-05-07T04:35:57;4.40;;;2.08;;
73675;SDS011;61975;48.660;10.164;2023-05-07T04:38:27;4.43;;;2.20;;
73675;SDS011;61975;48.660;10.164;2023-05-07T04:40:56;4.45;;;2.17;;
73675;SDS011;61975;48.660;10.164;2023-05-07T04:43:23;6.32;;;2.20;;
73675;SDS011;61975;48.660;10.164;2023-05-07T04:45:49;3.90;;;2.10;;
73675;SDS011;61975;48.660;10.164;2023-05-07T04:48:15;4.35;;;2.20;;
73675;SDS011;61975;48.660;10.164;2023-05-07T04:50:44;4.70;;;2.22;;
73675;SDS011;61975;48.660;10.164;2023-05-07T04:53:09;4.07;;;2.30;;
73675;SDS011;61975;48.660;10.164;2023-05-07T04:55:35;4.50;;;2.23;;
73675;SDS011;61975;48.660;10.164;2023-05-07T04:58:00;5.67;;;2.30;;
73675;SDS011;61975;48.660;10.164;2023-05-07T05:00:27;3.97;;;2.28;;
73675;SDS011;61975;48.660;10.164;2023-05-07T05:02:52;5.23;;;2.37;;
73675;SDS011;61975;48.660;10.164;2023-05-07T05:05:17;4.37;;;2.20;;
73675;SDS011;61975;48.660;10.164;2023-05-07T05:07:43;6.33;;;2.20;;
73675;SDS011;61975;48.660;10.164;2023-05-07T05:10:08;4.27;;;2.30;;
73675;SDS011;61975;48.660;10.164;2023-05-07T05:12:34;4.13;;;2.20;;
73675;SDS011;61975;48.660;10.164;2023-05-07T05:14:59;4.93;;;2.57;;
73675;SDS011;61975;48.660;10.164;2023-05-07T05:17:25;3.93;;;2.13;;
73675;SDS011;61975;48.660;10.164;2023-05-07T05:19:50;4.77;;;2.17;;
73675;SDS011;61975;48.660;10.164;2023-05-07T05:22:15;4.05;;;2.10;;
73675;SDS011;61975;48.660;10.164;2023-05-07T05:24:41;4.00;;;2.27;;
73675;SDS011;61975;48.660;10.164;2023-05-07T05:27:06;3.90;;;2.20;;
73675;SDS011;61975;48.660;10.164;2023-05-07T05:29:32;4.17;;;2.37;;
73675;SDS011;61975;48.660;10.164;2023-05-07T05:31:57;5.53;;;2.70;;
73675;SDS011;61975;48.660;10.164;2023-05-07T05:34:23;4.15;;;2.00;;
73675;SDS011;61975;48.660;10.164;2023-05-07T05:36:48;5.10;;;2.30;;
73675;SDS011;61975;48.660;10.164;2023-05-07T05:39:13;4.57;;;2.30;;
73675;SDS011;61975;48.660;10.164;2023-05-07T05:41:39;4.15;;;2.30;;
73675;SDS011;61975;48.660;10.164;2023-05-07T05:44:05;6.90;;;2.60;;
73675;SDS011;61975;48.660;10.164;2023-05-07T05:46:30;4.00;;;2.23;;
73675;SDS011;61975;48.660;10.164;2023-05-07T05:48:56;4.20;;;2.40;;
73675;SDS011;61975;48.660;10.164;2023-05-07T05:51:21;3.97;;;2.00;;
73675;SDS011;61975;48.660;10.164;2023-05-07T05:53:48;5.57;;;2.30;;
73675;SDS011;61975;48.660;10.164;2023-05-07T05:56:13;5.10;;;2.08;;
73675;SDS011;61975;48.660;10.164;2023-05-07T05:58:39;5.23;;;2.40;;
73675;SDS011;61975;48.660;10.164;2023-05-07T06:01:05;4.80;;;2.42;;
73675;SDS011;61975;48.660;10.164;2023-05-07T06:03:31;4.43;;;2.13;;
73675;SDS011;61975;48.660;10.164;2023-05-07T06:05:57;4.05;;;2.35;;
73675;SDS011;61975;48.660;10.164;2023-05-07T06:08:22;3.73;;;2.10;;
73675;SDS011;61975;48.660;10.164;2023-05-07T06:10:48;4.37;;;2.13;;
73675;SDS011;61975;48.660;10.164;2023-05-07T06:13:13;4.53;;;2.50;;
73675;SDS011;61975;48.660;10.164;2023-05-07T06:15:38;4.38;;;2.38;;
73675;SDS011;61975;48.660;10.164;2023-05-07T06:18:04;4.50;;;2.30;;
73675;SDS011;61975;48.660;10.164;2023-05-07T06:20:30;4.47;;;2.33;;
73675;SDS011;61975;48.660;10.164;2023-05-07T06:22:55;5.07;;;2.90;;
73675;SDS011;61975;48.660;10.164;2023-05-07T06:25:20;5.67;;;3.07;;
73675;SDS011;61975;48.660;10.164;2023-05-07T06:27:46;5.07;;;2.60;;
73675;SDS011;61975;48.660;10.164;2023-05-07T06:30:11;5.53;;;2.63;;
73675;SDS011;61975;48.660;10.164;2023-05-07T06:32:37;4.30;;;2.40;;
73675;SDS011;61975;48.660;10.164;2023-05-07T06:35:02;6.03;;;2.60;;
73675;SDS011;61975;48.660;10.164;2023-05-07T06:37:28;4.40;;;2.47;;
73675;SDS011;61975;48.660;10.164;2023-05-07T06:39:53;4.80;;;2.60;;
73675;SDS011;61975;48.660;10.164;2023-05-07T06:42:19;4.80;;;2.77;;
73675;SDS011;61975;48.660;10.164;2023-05-07T06:44:44;4.72;;;2.50;;
73675;SDS011;61975;48.660;10.164;2023-05-07T06:47:09;5.90;;;2.70;;
73675;SDS011;61975;48.660;10.164;2023-05-07T06:49:35;5.40;;;3.00;;
73675;SDS011;61975;48.660;10.164;2023-05-07T06:52:00;4.23;;;2.50;;
73675;SDS011;61975;48.660;10.164;2023-05-07T06:54:25;5.53;;;2.90;;
73675;SDS011;61975;48.660;10.164;2023-05-07T06:56:51;4.63;;;2.60;;
73675;SDS011;61975;48.660;10.164;2023-05-07T06:59:16;4.23;;;2.60;;
73675;SDS011;61975;48.660;10.164;2023-05-07T07:01:42;4.93;;;2.80;;
73675;SDS011;61975;48.660;10.164;2023-05-07T07:04:07;6.40;;;3.10;;
73675;SDS011;61975;48.660;10.164;2023-05-07T07:06:32;4.73;;;2.73;;
73675;SDS011;61975;48.660;10.164;2023-05-07T07:08:58;5.47;;;2.80;;
73675;SDS011;61975;48.660;10.164;2023-05-07T07:11:24;4.67;;;2.83;;
73675;SDS011;61975;48.660;10.164;2023-05-07T07:13:50;6.43;;;3.00;;
73675;SDS011;61975;48.660;10.164;2023-05-07T07:16:16;4.67;;;2.70;;
73675;SDS011;61975;48.660;10.164;2023-05-07T07:18:41;5.00;;;2.70;;
73675;SDS011;61975;48.660;10.164;2023-05-07T07:21:06;5.28;;;2.92;;
73675;SDS011;61975;48.660;10.164;2023-05-07T07:23:32;4.80;;;3.03;;
73675;SDS011;61975;48.660;10.164;2023-05-07T07:25:57;5.00;;;2.80;;
73675;SDS011;61975;48.660;10.164;2023-05-07T07:28:23;4.50;;;2.80;;
73675;SDS011;61975;48.660;10.164;2023-05-07T07:30:48;5.30;;;3.03;;
73675;SDS011;61975;48.660;10.164;2023-05-07T07:33:14;6.00;;;2.87;;
73675;SDS011;61975;48.660;10.164;2023-05-07T07:35:40;6.72;;;3.00;;
73675;SDS011;61975;48.660;10.164;2023-05-07T07:38:05;5.33;;;2.73;;
73675;SDS011;61975;48.660;10.164;2023-05-07T07:40:31;5.03;;;3.10;;
73675;SDS011;61975;48.660;10.164;2023-05-07T07:42:56;5.80;;;3.10;;
73675;SDS011;61975;48.660;10.164;2023-05-07T07:45:22;4.77;;;2.77;;
73675;SDS011;61975;48.660;10.164;2023-05-07T07:47:47;4.60;;;2.67;;
73675;SDS011;61975;48.660;10.164;2023-05-07T07:50:13;5.60;;;2.57;;
73675;SDS011;61975;48.660;10.164;2023-05-07T07:52:39;4.90;;;2.63;;
73675;SDS011;61975;48.660;10.164;2023-05-07T07:55:04;5.30;;;3.00;;
73675;SDS011;61975;48.660;10.164;2023-05-07T07:57:30;4.93;;;2.70;;
73675;SDS011;61975;48.660;10.164;2023-05-07T07:59:56;4.50;;;2.27;;
73675;SDS011;61975;48.660;10.164;2023-05-07T08:02:21;3.90;;;2.47;;
73675;SDS011;61975;48.660;10.164;2023-05-07T08:04:47;5.43;;;2.83;;
73675;SDS011;61975;48.660;10.164;2023-05-07T08:07:12;5.07;;;2.50;;
73675;SDS011;61975;48.660;10.164;2023-05-07T08:09:38;5.60;;;2.88;;
73675;SDS011;61975;48.660;10.164;2023-05-07T08:12:04;5.27;;;2.40;;
73675;SDS011;61975;48.660;10.164;2023-05-07T08:14:31;5.60;;;2.53;;
73675;SDS011;61975;48.660;10.164;2023-05-07T08:16:56;4.63;;;2.58;;
73675;SDS011;61975;48.660;10.164;2023-05-07T08:19:21;7.10;;;2.63;;
73675;SDS011;61975;48.660;10.164;2023-05-07T08:21:47;4.23;;;2.50;;
73675;SDS011;61975;48.660;10.164;2023-05-07T08:24:16;4.57;;;2.93;;
73675;SDS011;61975;48.660;10.164;2023-05-07T08:26:42;5.20;;;3.03;;
73675;SDS011;61975;48.660;10.164;2023-05-07T08:29:08;6.20;;;3.00;;
73675;SDS011;61975;48.660;10.164;2023-05-07T08:31:34;4.60;;;2.80;;
73675;SDS011;61975;48.660;10.164;2023-05-07T08:33:59;4.57;;;3.00;;
73675;SDS011;61975;48.660;10.164;2023-05-07T08:36:25;5.38;;;3.13;;
73675;SDS011;61975;48.660;10.164;2023-05-07T08:38:51;4.43;;;2.90;;
73675;SDS011;61975;48.660;10.164;2023-05-07T08:41:17;4.75;;;3.00;;
73675;SDS011;61975;48.660;10.164;2023-05-07T08:43:43;5.20;;;3.00;;
73675;SDS011;61975;48.660;10.164;2023-05-07T08:46:13;5.10;;;2.90;;
73675;SDS011;61975;48.660;10.164;2023-05-07T08:48:44;6.20;;;3.25;;
73675;SDS011;61975;48.660;10.164;2023-05-07T08:51:13;7.43;;;3.78;;
73675;SDS011;61975;48.660;10.164;2023-05-07T08:53:40;5.50;;;3.40;;
73675;SDS011;61975;48.660;10.164;2023-05-07T08:56:07;4.70;;;3.13;;
73675;SDS011;61975;48.660;10.164;2023-05-07T08:58:33;6.00;;;3.38;;
73675;SDS011;61975;48.660;10.164;2023-05-07T09:00:58;5.20;;;3.33;;
73675;SDS011;61975;48.660;10.164;2023-05-07T09:03:28;4.80;;;3.03;;
73675;SDS011;61975;48.660;10.164;2023-05-07T09:05:53;6.60;;;2.90;;
73675;SDS011;61975;48.660;10.164;2023-05-07T09:08:19;5.13;;;3.00;;
73675;SDS011;61975;48.660;10.164;2023-05-07T09:10:51;4.72;;;3.05;;
73675;SDS011;61975;48.660;10.164;2023-05-07T09:13:17;5.25;;;2.90;;
73675;SDS011;61975;48.660;10.164;2023-05-07T09:15:43;4.85;;;2.63;;
73675;SDS011;61975;48.660;10.164;2023-05-07T09:18:08;4.63;;;2.60;;
73675;SDS011;61975;48.660;10.164;2023-05-07T09:20:34;4.20;;;2.40;;
73675;SDS011;61975;48.660;10.164;2023-05-07T09:23:01;4.03;;;2.30;;
73675;SDS011;61975;48.660;10.164;2023-05-07T09:25:28;4.77;;;2.37;;
73675;SDS011;61975;48.660;10.164;2023-05-07T09:27:54;3.70;;;2.15;;
73675;SDS011;61975;48.660;10.164;2023-05-07T09:30:19;5.53;;;3.05;;
73675;SDS011;61975;48.660;10.164;2023-05-07T09:32:45;5.23;;;2.63;;
73675;SDS011;61975;48.660;10.164;2023-05-07T09:35:16;5.43;;;2.73;;
73675;SDS011;61975;48.660;10.164;2023-05-07T09:37:42;5.20;;;3.00;;
73675;SDS011;61975;48.660;10.164;2023-05-07T09:40:08;5.23;;;2.73;;
73675;SDS011;61975;48.660;10.164;2023-05-07T09:42:45;5.50;;;2.80;;
73675;SDS011;61975;48.660;10.164;2023-05-07T09:45:12;5.40;;;3.22;;
73675;SDS011;61975;48.660;10.164;2023-05-07T09:47:37;4.67;;;2.77;;
73675;SDS011;61975;48.660;10.164;2023-05-07T09:50:06;6.00;;;3.00;;
73675;SDS011;61975;48.660;10.164;2023-05-07T09:52:35;6.00;;;3.10;;
73675;SDS011;61975;48.660;10.164;2023-05-07T09:55:01;5.13;;;2.90;;
73675;SDS011;61975;48.660;10.164;2023-05-07T09:57:27;4.70;;;2.30;;
73675;SDS011;61975;48.660;10.164;2023-05-07T09:59:55;5.47;;;2.90;;
73675;SDS011;61975;48.660;10.164;2023-05-07T10:02:23;5.80;;;2.65;;
73675;SDS011;61975;48.660;10.164;2023-05-07T10:04:50;3.92;;;2.20;;
73675;SDS011;61975;48.660;10.164;2023-05-07T10:07:17;5.77;;;2.67;;
73675;SDS011;61975;48.660;10.164;2023-05-07T10:09:43;4.90;;;2.00;;
73675;SDS011;61975;48.660;10.164;2023-05-07T10:12:11;3.85;;;1.83;;
73675;SDS011;61975;48.660;10.164;2023-05-07T10:14:37;4.72;;;2.33;;
73675;SDS011;61975;48.660;10.164;2023-05-07T10:17:02;4.10;;;2.20;;
73675;SDS011;61975;48.660;10.164;2023-05-07T10:19:29;4.30;;;2.33;;
73675;SDS011;61975;48.660;10.164;2023-05-07T10:21:55;5.07;;;2.87;;
73675;SDS011;61975;48.660;10.164;2023-05-07T10:24:28;5.30;;;3.10;;
73675;SDS011;61975;48.660;10.164;2023-05-07T10:27:00;5.82;;;2.88;;
73675;SDS011;61975;48.660;10.164;2023-05-07T10:29:33;5.45;;;2.97;;
73675;SDS011;61975;48.660;10.164;2023-05-07T10:34:50;3.93;;;1.90;;
73675;SDS011;61975;48.660;10.164;2023-05-07T10:37:20;3.60;;;1.90;;
73675;SDS011;61975;48.660;10.164;2023-05-07T10:39:46;3.70;;;2.08;;
73675;SDS011;61975;48.660;10.164;2023-05-07T10:42:13;5.30;;;2.47;;
73675;SDS011;61975;48.660;10.164;2023-05-07T10:44:39;4.43;;;2.80;;
73675;SDS011;61975;48.660;10.164;2023-05-07T10:47:09;4.25;;;2.40;;
73675;SDS011;61975;48.660;10.164;2023-05-07T10:50:20;4.35;;;2.28;;
73675;SDS011;61975;48.660;10.164;2023-05-07T10:52:30;5.10;;;2.30;;
73675;SDS011;61975;48.660;10.164;2023-05-07T10:57:42;3.40;;;2.00;;
73675;SDS011;61975;48.660;10.164;2023-05-07T11:05:32;2.70;;;1.60;;
73675;SDS011;61975;48.660;10.164;2023-05-07T11:07:59;3.42;;;1.75;;
73675;SDS011;61975;48.660;10.164;2023-05-07T11:13:16;3.50;;;1.50;;
73675;SDS011;61975;48.660;10.164;2023-05-07T11:15:43;4.38;;;2.22;;
73675;SDS011;61975;48.660;10.164;2023-05-07T11:18:09;3.97;;;2.00;;
73675;SDS011;61975;48.660;10.164;2023-05-07T11:28:35;2.90;;;1.50;;
73675;SDS011;61975;48.660;10.164;2023-05-07T11:31:04;4.43;;;2.13;;
73675;SDS011;61975;48.660;10.164;2023-05-07T11:33:35;4.07;;;1.90;;
73675;SDS011;61975;48.660;10.164;2023-05-07T11:36:03;5.60;;;2.10;;
73675;SDS011;61975;48.660;10.164;2023-05-07T11:38:29;3.92;;;1.90;;
73675;SDS011;61975;48.660;10.164;2023-05-07T11:43:21;3.40;;;2.00;;
73675;SDS011;61975;48.660;10.164;2023-05-07T11:45:47;4.27;;;2.40;;
73675;SDS011;61975;48.660;10.164;2023-05-07T11:48:14;3.78;;;2.03;;
73675;SDS011;61975;48.660;10.164;2023-05-07T11:53:37;5.32;;;2.17;;
73675;SDS011;61975;48.660;10.164;2023-05-07T11:58:33;4.18;;;2.05;;
73675;SDS011;61975;48.660;10.164;2023-05-07T12:00:59;3.47;;;1.90;;
73675;SDS011;61975;48.660;10.164;2023-05-07T12:03:24;4.00;;;2.00;;
73675;SDS011;61975;48.660;10.164;2023-05-07T12:05:49;3.80;;;2.08;;
73675;SDS011;61975;48.660;10.164;2023-05-07T12:08:18;4.10;;;2.10;;
73675;SDS011;61975;48.660;10.164;2023-05-07T12:10:45;3.05;;;1.63;;
73675;SDS011;61975;48.660;10.164;2023-05-07T12:13:19;3.30;;;1.87;;
73675;SDS011;61975;48.660;10.164;2023-05-07T12:15:50;4.07;;;2.45;;
73675;SDS011;61975;48.660;10.164;2023-05-07T12:18:16;4.15;;;2.00;;
73675;SDS011;61975;48.660;10.164;2023-05-07T12:20:42;3.70;;;2.23;;
73675;SDS011;61975;48.660;10.164;2023-05-07T12:23:08;4.30;;;2.10;;
73675;SDS011;61975;48.660;10.164;2023-05-07T12:25:34;4.15;;;2.50;;
73675;SDS011;61975;48.660;10.164;2023-05-07T12:28:01;4.35;;;2.33;;
73675;SDS011;61975;48.660;10.164;2023-05-07T12:30:27;4.27;;;2.30;;
73675;SDS011;61975;48.660;10.164;2023-05-07T12:32:53;3.88;;;2.03;;
73675;SDS011;61975;48.660;10.164;2023-05-07T12:35:31;3.80;;;2.20;;
73675;SDS011;61975;48.660;10.164;2023-05-07T12:38:01;3.70;;;2.30;;
73675;SDS011;61975;48.660;10.164;2023-05-07T12:40:39;4.40;;;2.53;;
73675;SDS011;61975;48.660;10.164;2023-05-07T12:43:21;4.47;;;1.90;;
73675;SDS011;61975;48.660;10.164;2023-05-07T12:45:50;3.67;;;2.35;;
73675;SDS011;61975;48.660;10.164;2023-05-07T12:48:16;4.38;;;2.20;;
73675;SDS011;61975;48.660;10.164;2023-05-07T12:50:42;4.20;;;2.43;;
73675;SDS011;61975;48.660;10.164;2023-05-07T12:53:11;4.13;;;2.15;;
73675;SDS011;61975;48.660;10.164;2023-05-07T12:55:42;3.70;;;2.30;;
73675;SDS011;61975;48.660;10.164;2023-05-07T12:58:07;4.00;;;2.40;;
73675;SDS011;61975;48.660;10.164;2023-05-07T13:00:36;3.90;;;2.35;;
73675;SDS011;61975;48.660;10.164;2023-05-07T13:03:03;3.50;;;2.23;;
73675;SDS011;61975;48.660;10.164;2023-05-07T13:05:28;3.63;;;2.30;;
73675;SDS011;61975;48.660;10.164;2023-05-07T13:07:54;4.03;;;2.10;;
73675;SDS011;61975;48.660;10.164;2023-05-07T13:10:21;4.22;;;2.20;;
73675;SDS011;61975;48.660;10.164;2023-05-07T13:12:48;4.38;;;2.10;;
73675;SDS011;61975;48.660;10.164;2023-05-07T13:15:14;3.50;;;2.20;;
73675;SDS011;61975;48.660;10.164;2023-05-07T13:17:39;3.55;;;2.00;;
73675;SDS011;61975;48.660;10.164;2023-05-07T13:20:13;4.27;;;2.30;;
73675;SDS011;61975;48.660;10.164;2023-05-07T13:22:40;3.20;;;2.10;;
73675;SDS011;61975;48.660;10.164;2023-05-07T13:25:05;3.77;;;2.27;;
73675;SDS011;61975;48.660;10.164;2023-05-07T13:27:31;4.88;;;2.20;;
73675;SDS011;61975;48.660;10.164;2023-05-07T13:29:57;4.10;;;2.13;;
73675;SDS011;61975;48.660;10.164;2023-05-07T13:32:22;4.50;;;2.20;;
73675;SDS011;61975;48.660;10.164;2023-05-07T13:34:48;3.80;;;2.13;;
73675;SDS011;61975;48.660;10.164;2023-05-07T13:37:13;4.85;;;2.25;;
73675;SDS011;61975;48.660;10.164;2023-05-07T13:39:39;4.37;;;2.10;;
73675;SDS011;61975;48.660;10.164;2023-05-07T13:42:06;4.18;;;2.17;;
73675;SDS011;61975;48.660;10.164;2023-05-07T13:44:32;3.60;;;2.30;;
73675;SDS011;61975;48.660;10.164;2023-05-07T13:46:58;4.32;;;2.13;;
73675;SDS011;61975;48.660;10.164;2023-05-07T13:49:23;3.63;;;1.80;;
73675;SDS011;61975;48.660;10.164;2023-05-07T13:51:49;4.40;;;1.70;;
73675;SDS011;61975;48.660;10.164;2023-05-07T13:54:14;3.50;;;2.10;;
73675;SDS011;61975;48.660;10.164;2023-05-07T13:56:40;3.53;;;2.15;;
73675;SDS011;61975;48.660;10.164;2023-05-07T13:59:06;4.03;;;2.27;;
73675;SDS011;61975;48.660;10.164;2023-05-07T14:01:31;3.40;;;2.00;;
73675;SDS011;61975;48.660;10.164;2023-05-07T14:03:57;3.73;;;2.00;;
73675;SDS011;61975;48.660;10.164;2023-05-07T14:06:25;4.75;;;2.22;;
73675;SDS011;61975;48.660;10.164;2023-05-07T14:08:50;4.03;;;2.10;;
73675;SDS011;61975;48.660;10.164;2023-05-07T14:11:16;3.85;;;2.10;;
73675;SDS011;61975;48.660;10.164;2023-05-07T14:13:42;3.93;;;2.07;;
73675;SDS011;61975;48.660;10.164;2023-05-07T14:16:07;3.33;;;1.95;;
73675;SDS011;61975;48.660;10.164;2023-05-07T14:18:33;3.90;;;2.00;;
73675;SDS011;61975;48.660;10.164;2023-05-07T14:20:59;3.42;;;2.10;;
73675;SDS011;61975;48.660;10.164;2023-05-07T14:23:24;3.37;;;2.10;;
73675;SDS011;61975;48.660;10.164;2023-05-07T14:25:51;3.42;;;2.08;;
73675;SDS011;61975;48.660;10.164;2023-05-07T14:28:17;3.67;;;2.23;;
73675;SDS011;61975;48.660;10.164;2023-05-07T14:30:43;3.38;;;1.90;;
73675;SDS011;61975;48.660;10.164;2023-05-07T14:33:08;4.00;;;2.13;;
73675;SDS011;61975;48.660;10.164;2023-05-07T14:35:33;3.43;;;1.93;;
73675;SDS011;61975;48.660;10.164;2023-05-07T14:37:59;5.10;;;2.30;;
73675;SDS011;61975;48.660;10.164;2023-05-07T14:40:24;4.75;;;2.08;;
73675;SDS011;61975;48.660;10.164;2023-05-07T14:42:50;3.30;;;2.00;;
73675;SDS011;61975;48.660;10.164;2023-05-07T14:45:15;3.90;;;2.10;;
73675;SDS011;61975;48.660;10.164;2023-05-07T14:47:41;4.63;;;2.77;;
73675;SDS011;61975;48.660;10.164;2023-05-07T14:50:06;4.47;;;2.90;;
73675;SDS011;61975;48.660;10.164;2023-05-07T14:52:32;3.10;;;1.83;;
73675;SDS011;61975;48.660;10.164;2023-05-07T14:54:58;3.65;;;2.40;;
73675;SDS011;61975;48.660;10.164;2023-05-07T14:57:23;3.57;;;2.10;;